Sarah — ZCGX — position and weather

sailwx.info

Track history (hours):
 
Tides and Currents Weather Stations Pressure Air Temp Water Temp Dewpoint Dewpoint Depression Visibility Wind Speed Wind Dir Waves Ship Positions

Sarah

Last reported at 2018-Aug-19 22:59 UTC. Time now 2018-Aug-19 23:11 UTC.
Position N 43°32' E 007°02'.

Length 62 m; draft 3.5 m.

Type: Pleasure craft. MMSI: 319775000.

Date/timePositionNaut miles runAvg speedWind from/ knotsBaromVisibWave heightAir tempDewpointWater temp
2018-Aug-19 22:59N 43°32' E 007°02'0 0.0
2018-Aug-19 22:29N 43°32' E 007°02'0 0.0
2018-Aug-19 21:59N 43°32' E 007°02'0 0.0
2018-Aug-19 21:29N 43°32' E 007°02'0 0.0
2018-Aug-19 20:59N 43°32' E 007°02'0 0.0
2018-Aug-19 20:29N 43°32' E 007°02'0 0.0
2018-Aug-19 19:59N 43°32' E 007°02'0 0.0
2018-Aug-19 19:29N 43°32' E 007°02'0 0.0
2018-Aug-19 18:59N 43°32' E 007°02'0 0.0
2018-Aug-19 18:29N 43°32' E 007°02'0 0.0
2018-Aug-19 17:59N 43°32' E 007°02'0 1.0
2018-Aug-19 17:30N 43°32' E 007°01'0 0.0
2018-Aug-19 17:00N 43°32' E 007°01'0 0.0
2018-Aug-19 16:30N 43°32' E 007°01'0 0.0
2018-Aug-19 16:00N 43°32' E 007°01'0 0.0
2018-Aug-19 15:30N 43°32' E 007°01'0 0.0
2018-Aug-19 15:00N 43°32' E 007°01'0 0.9
2018-Aug-19 14:29N 43°32' E 007°02'0 0.0
2018-Aug-19 13:59N 43°32' E 007°02'0 0.0
2018-Aug-19 13:29N 43°32' E 007°02'0 0.0
2018-Aug-19 12:59N 43°32' E 007°02'0 0.0
2018-Aug-19 12:29N 43°32' E 007°02'0 0.0
2018-Aug-19 11:59N 43°32' E 007°02'0 0.0
2018-Aug-19 11:29N 43°32' E 007°02'0 0.0
2018-Aug-19 10:59N 43°32' E 007°02'0 0.0
2018-Aug-19 10:29N 43°32' E 007°02'0 0.0
2018-Aug-19 09:59N 43°32' E 007°02'0 0.0
2018-Aug-19 09:29N 43°32' E 007°02'0 0.0
2018-Aug-19 08:59N 43°32' E 007°02'0 0.0
2018-Aug-19 08:29N 43°32' E 007°02'0 0.0
2018-Aug-19 07:59N 43°32' E 007°02'0 0.0
2018-Aug-19 07:29N 43°32' E 007°02'0 0.0
2018-Aug-19 06:59N 43°32' E 007°02'0 0.0
2018-Aug-19 06:29N 43°32' E 007°02'0 0.0
2018-Aug-19 05:59N 43°32' E 007°02'0 0.0
2018-Aug-19 05:29N 43°32' E 007°02'0 0.0
2018-Aug-19 04:59N 43°32' E 007°02'0 0.0
2018-Aug-19 04:29N 43°32' E 007°02'0 0.0
2018-Aug-19 03:59N 43°32' E 007°02'0 0.0
2018-Aug-19 03:29N 43°32' E 007°02'0 0.0
2018-Aug-19 02:59N 43°32' E 007°02'0 0.0
2018-Aug-19 02:29N 43°32' E 007°02'0 0.0
2018-Aug-19 01:59N 43°32' E 007°02'0 0.0
2018-Aug-19 01:29N 43°32' E 007°02'0 0.0
2018-Aug-19 00:59N 43°32' E 007°02'0 0.0
2018-Aug-19 00:28N 43°32' E 007°02'0 0.0
2018-Aug-18 23:58N 43°32' E 007°02'0 0.0
2018-Aug-18 23:28N 43°32' E 007°02'0 0.0
2018-Aug-18 22:58N 43°32' E 007°02'0 0.0
2018-Aug-18 22:28N 43°32' E 007°02'0 0.0
2018-Aug-18 21:58N 43°32' E 007°02'0 0.0
2018-Aug-18 21:28N 43°32' E 007°02'0 0.0
2018-Aug-18 20:58N 43°32' E 007°02'0 0.0
2018-Aug-18 20:28N 43°32' E 007°02'0 0.0
2018-Aug-18 19:58N 43°32' E 007°02'0 0.0
2018-Aug-18 19:30N 43°32' E 007°02'0 0.0
2018-Aug-18 19:00N 43°32' E 007°02'0 0.0
2018-Aug-18 18:30N 43°32' E 007°02'2 3.1
2018-Aug-18 18:00N 43°31' E 007°01'2 4.2
2018-Aug-18 17:29N 43°31' E 007°04'0 0.0
2018-Aug-18 16:59N 43°31' E 007°04'0 0.0
2018-Aug-18 16:29N 43°31' E 007°04'0 0.0
2018-Aug-18 15:59N 43°31' E 007°04'0 0.0
2018-Aug-18 15:29N 43°31' E 007°04'0 0.0
2018-Aug-18 15:00N 43°31' E 007°04'3 6.3
2018-Aug-18 14:31N 43°30' E 007°08'714.4
2018-Aug-18 14:00N 43°27' E 007°17'3 6.4
2018-Aug-18 13:30N 43°26' E 007°21'510.1
2018-Aug-18 13:00N 43°28' E 007°27'713.1
2018-Aug-18 12:30N 43°35' E 007°27'714.2
2018-Aug-18 12:00N 43°42' E 007°27'3 4.3
2018-Aug-18 11:25N 43°44' E 007°25'0 0.0
2018-Aug-18 10:52N 43°44' E 007°25'0 0.0
2018-Aug-18 10:28N 43°44' E 007°25'0 0.0
2018-Aug-18 08:34N 43°44' E 007°25'0 0.0
2018-Aug-18 08:22N 43°44' E 007°25'0 0.0
2018-Aug-18 07:49N 43°44' E 007°25'0 0.0
2018-Aug-18 05:55N 43°44' E 007°25'0 0.0
2018-Aug-18 05:28N 43°44' E 007°25'0 0.0
2018-Aug-18 01:58N 43°44' E 007°25'0 0.0
2018-Aug-18 01:19N 43°44' E 007°25'0 0.0
2018-Aug-18 00:49N 43°44' E 007°25'0 0.0
2018-Aug-18 00:16N 43°44' E 007°25'0 0.0
2018-Aug-17 23:53N 43°44' E 007°25'0 0.0
2018-Aug-17 23:30N 43°44' E 007°25'0 0.0
2018-Aug-17 23:00N 43°44' E 007°25'0 0.0
2018-Aug-17 22:30N 43°44' E 007°25'0 0.0
2018-Aug-17 22:00N 43°44' E 007°25'0 0.0
2018-Aug-17 21:30N 43°44' E 007°25'0 0.0
2018-Aug-17 21:00N 43°44' E 007°25'0 0.0
2018-Aug-17 20:30N 43°44' E 007°25'0 0.0
2018-Aug-17 20:00N 43°44' E 007°25'0 0.0
2018-Aug-17 19:30N 43°44' E 007°25'0 0.2
2018-Aug-17 19:00N 43°44' E 007°26'4 7.9
2018-Aug-17 18:30N 43°41' E 007°22'714.0
2018-Aug-17 18:00N 43°37' E 007°15'510.6
2018-Aug-17 17:30N 43°34' E 007°09'0 0.0
2018-Aug-17 17:00N 43°34' E 007°09'0 0.0
2018-Aug-17 16:29N 43°34' E 007°09'0 0.0
2018-Aug-17 16:00N 43°34' E 007°09'0 0.0
2018-Aug-17 15:30N 43°34' E 007°09'0 0.0
2018-Aug-17 15:00N 43°34' E 007°09'0 0.0
2018-Aug-17 14:01N 43°34' E 007°09'4 7.5
2018-Aug-17 13:30N 43°31' E 007°06'4 7.1
2018-Aug-17 13:01N 43°32' E 007°01'0 0.5
2018-Aug-17 12:30N 43°32' E 007°02'0 0.0
2018-Aug-17 11:57N 43°32' E 007°02'0 0.0
2018-Aug-17 11:30N 43°32' E 007°02'0 0.0
2018-Aug-17 11:00N 43°32' E 007°02'0 0.0
2018-Aug-17 10:30N 43°32' E 007°02'0 0.0
2018-Aug-17 09:54N 43°32' E 007°02'0 0.0
2018-Aug-17 09:21N 43°32' E 007°02'0 0.0
2018-Aug-17 08:51N 43°32' E 007°02'0 0.0
2018-Aug-17 08:30N 43°32' E 007°02'0 0.0
2018-Aug-17 08:00N 43°32' E 007°02'0 0.0
2018-Aug-17 07:30N 43°32' E 007°02'0 0.0
2018-Aug-17 07:00N 43°32' E 007°02'0 0.0
2018-Aug-17 06:30N 43°32' E 007°02'0 0.0
2018-Aug-17 06:00N 43°32' E 007°02'0 0.0
2018-Aug-17 05:30N 43°32' E 007°02'0 0.0
2018-Aug-17 05:00N 43°32' E 007°02'0 0.0
2018-Aug-17 04:30N 43°32' E 007°02'0 0.0
2018-Aug-17 04:00N 43°32' E 007°02'0 0.0
2018-Aug-17 03:30N 43°32' E 007°02'0 0.0
2018-Aug-17 03:00N 43°32' E 007°02'0 0.0
2018-Aug-17 02:30N 43°32' E 007°02'0 0.0
2018-Aug-17 02:00N 43°32' E 007°02'0 0.0
2018-Aug-17 01:30N 43°32' E 007°02'0 0.0
2018-Aug-17 01:00N 43°32' E 007°02'0 0.0
2018-Aug-17 00:30N 43°32' E 007°02'0 0.0
2018-Aug-17 00:00N 43°32' E 007°02'0 0.0
2018-Aug-16 23:30N 43°32' E 007°02'0 0.0
2018-Aug-16 23:00N 43°32' E 007°02'0 0.0
2018-Aug-16 22:30N 43°32' E 007°02'0 0.0
2018-Aug-16 22:00N 43°32' E 007°02'0 0.0
2018-Aug-16 21:30N 43°32' E 007°02'0 0.0
2018-Aug-16 21:00N 43°32' E 007°02'0 0.0
2018-Aug-16 20:30N 43°32' E 007°02'0 0.0
2018-Aug-16 20:00N 43°32' E 007°02'0 0.0
2018-Aug-16 19:30N 43°32' E 007°02'0 0.0
2018-Aug-16 19:00N 43°32' E 007°02'1 1.4
2018-Aug-16 18:30N 43°32' E 007°01'3 6.4
2018-Aug-16 18:00N 43°31' E 006°57'0 0.0
2018-Aug-16 17:30N 43°31' E 006°57'0 0.0
2018-Aug-16 17:00N 43°31' E 006°57'0 0.0
2018-Aug-16 16:30N 43°31' E 006°57'0 0.2
2018-Aug-16 16:00N 43°31' E 006°57'3 5.8
2018-Aug-16 15:30N 43°32' E 007°01'1 1.7
2018-Aug-16 14:58N 43°33' E 007°02'0 0.0
2018-Aug-16 14:29N 43°33' E 007°02'0 0.5
2018-Aug-16 13:58N 43°32' E 007°02'0 0.0
2018-Aug-16 13:28N 43°32' E 007°02'0 0.0
2018-Aug-16 12:58N 43°32' E 007°02'0 0.0
2018-Aug-16 12:28N 43°32' E 007°02'0 0.0
2018-Aug-16 11:58N 43°32' E 007°02'0 0.0
2018-Aug-16 11:28N 43°32' E 007°02'0 0.0
2018-Aug-16 10:58N 43°32' E 007°02'0 0.0
2018-Aug-16 10:28N 43°32' E 007°02'0 0.0
2018-Aug-16 09:58N 43°32' E 007°02'0 0.0
2018-Aug-16 09:28N 43°32' E 007°02'0 0.0
2018-Aug-16 08:58N 43°32' E 007°02'0 0.0
2018-Aug-16 08:28N 43°32' E 007°02'0 0.0
2018-Aug-16 07:58N 43°32' E 007°02'0 0.0
2018-Aug-16 07:28N 43°32' E 007°02'0 0.0
2018-Aug-16 06:58N 43°32' E 007°02'0 0.0
2018-Aug-16 06:28N 43°32' E 007°02'0 0.0
2018-Aug-16 05:58N 43°32' E 007°02'0 0.0
2018-Aug-16 05:28N 43°32' E 007°02'0 0.0
2018-Aug-16 05:01N 43°32' E 007°02'0 0.0
2018-Aug-16 04:31N 43°32' E 007°02'0 0.0
2018-Aug-16 04:01N 43°32' E 007°02'0 0.0
2018-Aug-16 03:31N 43°32' E 007°02'0 0.0
2018-Aug-16 03:01N 43°32' E 007°02'0 0.0
2018-Aug-16 02:31N 43°32' E 007°02'0 0.0
2018-Aug-16 02:01N 43°32' E 007°02'0 0.0
2018-Aug-16 01:31N 43°32' E 007°02'0 0.0
2018-Aug-16 01:00N 43°32' E 007°02'0 0.0
2018-Aug-16 00:30N 43°32' E 007°02'0 0.0
2018-Aug-16 00:00N 43°32' E 007°02'0 0.0
2018-Aug-15 23:30N 43°32' E 007°02'0 0.0
2018-Aug-15 23:00N 43°32' E 007°02'0 0.0
2018-Aug-15 22:30N 43°32' E 007°02'0 0.0
2018-Aug-15 22:00N 43°32' E 007°02'0 0.0
2018-Aug-15 21:30N 43°32' E 007°02'0 0.0
2018-Aug-15 20:57N 43°32' E 007°02'0 0.0
2018-Aug-15 20:27N 43°32' E 007°02'0 0.0
2018-Aug-15 20:00N 43°32' E 007°02'0 0.0
2018-Aug-15 19:30N 43°32' E 007°02'0 0.0
2018-Aug-15 19:00N 43°32' E 007°02'0 0.0
2018-Aug-15 18:30N 43°32' E 007°02'0 0.0
2018-Aug-15 18:00N 43°32' E 007°02'0 0.0
2018-Aug-15 17:30N 43°32' E 007°02'0 0.0
2018-Aug-15 17:00N 43°32' E 007°02'0 0.0
2018-Aug-15 16:30N 43°32' E 007°02'0 0.0
2018-Aug-15 15:57N 43°32' E 007°02'0 0.0
2018-Aug-15 15:30N 43°32' E 007°02'0 0.0
2018-Aug-15 14:57N 43°32' E 007°02'0 0.0
2018-Aug-15 14:30N 43°32' E 007°02'0 0.0
2018-Aug-15 14:00N 43°32' E 007°02'0 0.0
2018-Aug-15 13:30N 43°32' E 007°02'0 0.0
2018-Aug-15 13:00N 43°32' E 007°02'0 0.0
2018-Aug-15 12:27N 43°32' E 007°02'0 0.0
2018-Aug-15 12:00N 43°32' E 007°02'0 0.0
2018-Aug-15 11:30N 43°32' E 007°02'0 0.0
2018-Aug-15 11:00N 43°32' E 007°02'0 0.0
2018-Aug-15 10:30N 43°32' E 007°02'0 0.0
2018-Aug-15 09:57N 43°32' E 007°02'0 0.0
2018-Aug-15 09:30N 43°32' E 007°02'0 0.0
2018-Aug-15 09:00N 43°32' E 007°02'0 0.0
2018-Aug-15 08:30N 43°32' E 007°02'0 0.0
2018-Aug-15 08:00N 43°32' E 007°02'0 0.0
2018-Aug-15 07:30N 43°32' E 007°02'0 0.0
2018-Aug-15 07:00N 43°32' E 007°02'0 0.0
2018-Aug-15 06:30N 43°32' E 007°02'0 0.0
2018-Aug-15 06:00N 43°32' E 007°02'0 0.0
2018-Aug-15 05:30N 43°32' E 007°02'0 0.0
2018-Aug-15 04:57N 43°32' E 007°02'0 0.0
2018-Aug-15 04:30N 43°32' E 007°02'0 0.0
2018-Aug-15 04:00N 43°32' E 007°02'0 0.0
2018-Aug-15 03:30N 43°32' E 007°02'0 0.0
2018-Aug-15 03:00N 43°32' E 007°02'0 0.0
2018-Aug-15 02:30N 43°32' E 007°02'0 0.0
2018-Aug-15 02:00N 43°32' E 007°02'0 0.0
2018-Aug-15 01:30N 43°32' E 007°02'0 0.0
2018-Aug-15 01:00N 43°32' E 007°02'0 0.0
2018-Aug-15 00:30N 43°32' E 007°02'0 0.0
2018-Aug-15 00:00N 43°32' E 007°02'0 0.0
2018-Aug-14 23:30N 43°32' E 007°02'0 0.0
2018-Aug-14 23:00N 43°32' E 007°02'0 0.0
2018-Aug-14 22:30N 43°32' E 007°02'0 0.0
2018-Aug-14 22:00N 43°32' E 007°02'0 0.0
2018-Aug-14 21:30N 43°32' E 007°02'0 0.0
2018-Aug-14 21:00N 43°32' E 007°02'0 0.0
2018-Aug-14 20:30N 43°32' E 007°02'0 0.0
2018-Aug-14 20:00N 43°32' E 007°02'0 0.0
2018-Aug-14 19:30N 43°32' E 007°02'0 0.0
2018-Aug-14 19:00N 43°32' E 007°02'0 0.0
2018-Aug-14 18:30N 43°32' E 007°02'0 0.0
2018-Aug-14 18:00N 43°32' E 007°02'0 0.0
2018-Aug-14 17:27N 43°32' E 007°02'0 0.0
2018-Aug-14 17:00N 43°32' E 007°02'0 0.0
2018-Aug-14 16:30N 43°32' E 007°02'0 0.8
2018-Aug-14 16:00N 43°33' E 007°01'0 0.2
2018-Aug-14 15:28N 43°33' E 007°01'0 0.0
2018-Aug-14 14:58N 43°33' E 007°01'0 0.0
2018-Aug-14 14:28N 43°33' E 007°01'0 0.0
2018-Aug-14 13:58N 43°33' E 007°01'0 0.0
2018-Aug-14 13:25N 43°33' E 007°01'0 0.0
2018-Aug-14 12:58N 43°33' E 007°01'0 0.1
2018-Aug-14 12:28N 43°33' E 007°01'0 0.0
2018-Aug-14 11:58N 43°33' E 007°01'0 0.0
2018-Aug-14 11:25N 43°33' E 007°01'0 0.0
2018-Aug-14 10:55N 43°33' E 007°01'0 0.0
2018-Aug-14 10:28N 43°33' E 007°01'0 0.0
2018-Aug-14 09:58N 43°33' E 007°01'0 0.0
2018-Aug-14 09:28N 43°33' E 007°01'0 0.1
2018-Aug-14 09:01N 43°33' E 007°01'1 1.0
2018-Aug-14 08:27N 43°32' E 007°02'0 0.0
2018-Aug-14 07:57N 43°32' E 007°02'0 0.0
2018-Aug-14 07:27N 43°32' E 007°02'0 0.0
2018-Aug-14 07:00N 43°32' E 007°02'0 0.0
2018-Aug-14 06:30N 43°32' E 007°02'0 0.0
2018-Aug-14 06:00N 43°32' E 007°02'0 0.0
2018-Aug-14 05:30N 43°32' E 007°02'0 0.0
2018-Aug-14 05:00N 43°32' E 007°02'0 0.0
2018-Aug-14 04:30N 43°32' E 007°02'0 0.0
2018-Aug-14 04:00N 43°32' E 007°02'0 0.0
2018-Aug-14 03:30N 43°32' E 007°02'0 0.0
2018-Aug-14 03:00N 43°32' E 007°02'0 0.0
2018-Aug-14 02:30N 43°32' E 007°02'0 0.0
2018-Aug-14 02:00N 43°32' E 007°02'0 0.0
2018-Aug-14 01:30N 43°32' E 007°02'0 0.0
2018-Aug-14 01:00N 43°32' E 007°02'0 0.0
2018-Aug-14 00:30N 43°32' E 007°02'0 0.0
2018-Aug-14 00:00N 43°32' E 007°02'0 0.0
2018-Aug-13 23:30N 43°32' E 007°02'0 0.0
2018-Aug-13 22:51N 43°32' E 007°02'0 0.0
2018-Aug-13 22:21N 43°32' E 007°02'0 0.0
2018-Aug-13 21:57N 43°32' E 007°02'0 0.0
2018-Aug-13 21:21N 43°32' E 007°02'0 0.0
2018-Aug-13 20:54N 43°32' E 007°02'0 0.0
2018-Aug-13 20:24N 43°32' E 007°02'0 0.0
2018-Aug-13 19:54N 43°32' E 007°02'0 0.0
2018-Aug-13 19:24N 43°32' E 007°02'0 0.0
2018-Aug-13 18:54N 43°32' E 007°02'0 0.0
2018-Aug-13 18:24N 43°32' E 007°02'0 0.0
2018-Aug-13 17:57N 43°32' E 007°02'0 0.0
2018-Aug-13 17:27N 43°32' E 007°02'0 0.0
2018-Aug-13 17:00N 43°32' E 007°02'0 0.0
2018-Aug-13 16:27N 43°32' E 007°02'0 0.0
2018-Aug-13 15:42N 43°32' E 007°02'0 0.0
2018-Aug-13 15:27N 43°32' E 007°02'0 0.0
2018-Aug-13 15:00N 43°32' E 007°02'0 0.0
2018-Aug-13 14:30N 43°32' E 007°02'0 0.0
2018-Aug-13 14:00N 43°32' E 007°02'0 0.0
2018-Aug-13 13:30N 43°32' E 007°02'0 0.0
2018-Aug-13 13:00N 43°32' E 007°02'0 0.0
2018-Aug-13 12:30N 43°32' E 007°02'0 0.0
2018-Aug-13 12:00N 43°32' E 007°02'0 0.0
2018-Aug-13 11:30N 43°32' E 007°02'0 0.0
2018-Aug-13 11:00N 43°32' E 007°02'0 0.0
2018-Aug-13 10:30N 43°32' E 007°02'0 0.0
2018-Aug-13 10:00N 43°32' E 007°02'0 0.0
2018-Aug-13 09:30N 43°32' E 007°02'0 0.0
2018-Aug-13 08:48N 43°32' E 007°02'0 0.0
2018-Aug-13 08:24N 43°32' E 007°02'0 0.0
2018-Aug-13 08:00N 43°32' E 007°02'0 0.0
2018-Aug-13 07:30N 43°32' E 007°02'0 0.0
2018-Aug-13 06:42N 43°32' E 007°02'0 0.0
2018-Aug-13 06:24N 43°32' E 007°02'0 0.0
2018-Aug-13 05:57N 43°32' E 007°02'0 0.0
2018-Aug-13 05:30N 43°32' E 007°02'0 0.0
2018-Aug-13 05:00N 43°32' E 007°02'0 0.0
2018-Aug-13 04:27N 43°32' E 007°02'0 0.0
2018-Aug-13 04:00N 43°32' E 007°02'0 0.0
2018-Aug-13 03:30N 43°32' E 007°02'0 0.0
2018-Aug-13 02:54N 43°32' E 007°02'0 0.0
2018-Aug-13 02:21N 43°32' E 007°02'0 0.0
2018-Aug-13 02:00N 43°32' E 007°02'0 0.0
2018-Aug-13 01:24N 43°32' E 007°02'0 0.0
2018-Aug-13 00:57N 43°32' E 007°02'0 0.0
2018-Aug-13 00:27N 43°32' E 007°02'0 0.0
2018-Aug-13 00:00N 43°32' E 007°02'0 0.0
2018-Aug-12 23:27N 43°32' E 007°02'0 0.0
2018-Aug-12 23:00N 43°32' E 007°02'0 0.0
2018-Aug-12 22:30N 43°32' E 007°02'0 0.0
2018-Aug-12 22:00N 43°32' E 007°02'0 0.0
2018-Aug-12 21:30N 43°32' E 007°02'0 0.0
2018-Aug-12 20:57N 43°32' E 007°02'0 0.0
2018-Aug-12 20:30N 43°32' E 007°02'0 0.0
2018-Aug-12 20:00N 43°32' E 007°02'0 0.0
2018-Aug-12 19:30N 43°32' E 007°02'0 0.0
2018-Aug-12 19:01N 43°32' E 007°02'0 0.0
2018-Aug-12 18:30N 43°32' E 007°02'0 0.0
2018-Aug-12 18:00N 43°32' E 007°02'2 3.6
2018-Aug-12 17:31N 43°32' E 006°60'2 4.3
2018-Aug-12 16:58N 43°31' E 006°57'0 0.0
2018-Aug-12 16:28N 43°31' E 006°57'0 0.0
2018-Aug-12 15:58N 43°31' E 006°57'0 0.0
2018-Aug-12 15:28N 43°31' E 006°57'0 0.1
2018-Aug-12 14:58N 43°31' E 006°57'2 4.5
2018-Aug-12 14:30N 43°32' E 006°59'2 2.8
2018-Aug-12 13:55N 43°32' E 007°01'0 0.0
2018-Aug-12 13:28N 43°32' E 007°01'0 0.0
2018-Aug-12 12:58N 43°32' E 007°01'0 0.0
2018-Aug-12 12:28N 43°32' E 007°01'0 0.0
2018-Aug-12 11:58N 43°32' E 007°01'0 0.0
2018-Aug-12 11:28N 43°32' E 007°01'0 0.0
2018-Aug-12 10:58N 43°32' E 007°01'0 0.0
2018-Aug-12 10:28N 43°32' E 007°01'0 0.0
2018-Aug-12 09:55N 43°32' E 007°01'0 0.0
2018-Aug-12 09:28N 43°32' E 007°01'0 0.0
2018-Aug-12 08:58N 43°32' E 007°01'0 0.0
2018-Aug-12 08:28N 43°32' E 007°01'0 0.0
2018-Aug-12 07:58N 43°32' E 007°01'0 0.0
2018-Aug-12 07:28N 43°32' E 007°01'0 0.0
2018-Aug-12 07:01N 43°32' E 007°01'0 0.0
2018-Aug-12 06:28N 43°32' E 007°01'0 0.0
2018-Aug-12 06:01N 43°32' E 007°01'0 0.0
2018-Aug-12 05:31N 43°32' E 007°01'0 0.0
2018-Aug-12 05:01N 43°32' E 007°01'0 0.0
2018-Aug-12 04:31N 43°32' E 007°01'0 0.0
2018-Aug-12 04:01N 43°32' E 007°01'1 1.2
2018-Aug-12 03:30N 43°32' E 007°01'510.5
2018-Aug-12 03:00N 43°27' E 006°57'18 3.3
2018-Aug-11 21:34N 43°17' E 006°38'0 0.0
2018-Aug-11 21:10N 43°17' E 006°38'0 0.0
2018-Aug-11 20:49N 43°17' E 006°38'0 0.0
2018-Aug-11 20:28N 43°17' E 006°38'0 0.0
2018-Aug-11 19:25N 43°17' E 006°38'0 0.0
2018-Aug-11 18:52N 43°17' E 006°38'2 5.6
2018-Aug-11 18:30N 43°17' E 006°40'4 7.0
2018-Aug-11 17:58N 43°13' E 006°41'0 1.0
2018-Aug-11 17:28N 43°13' E 006°40'0 0.0
2018-Aug-11 16:58N 43°13' E 006°40'0 0.0
2018-Aug-11 16:25N 43°13' E 006°40'0 0.0
2018-Aug-11 15:58N 43°13' E 006°40'0 0.0
2018-Aug-11 15:25N 43°13' E 006°40'0 0.0
2018-Aug-11 14:55N 43°13' E 006°40'19 2.2
2018-Aug-11 06:34N 43°27' E 006°57'115.2
2018-Aug-11 06:30N 43°28' E 006°58'5 8.5
2018-Aug-11 05:54N 43°33' E 007°01'0 0.0
2018-Aug-11 05:27N 43°33' E 007°01'0 0.0
2018-Aug-11 04:57N 43°33' E 007°01'0 0.0
2018-Aug-11 04:27N 43°33' E 007°01'0 0.0
2018-Aug-11 04:00N 43°33' E 007°01'0 0.0
2018-Aug-11 03:30N 43°33' E 007°01'0 0.0
2018-Aug-11 03:00N 43°33' E 007°01'0 0.0
2018-Aug-11 02:30N 43°33' E 007°01'0 0.0
2018-Aug-11 02:00N 43°33' E 007°01'0 0.0
2018-Aug-11 01:30N 43°33' E 007°01'0 0.0
2018-Aug-11 00:57N 43°33' E 007°01'0 0.0
2018-Aug-11 00:30N 43°33' E 007°01'0 0.0
2018-Aug-11 00:00N 43°33' E 007°01'0 0.0
2018-Aug-10 23:30N 43°33' E 007°01'0 0.0
2018-Aug-10 23:00N 43°33' E 007°01'0 0.0
2018-Aug-10 22:27N 43°33' E 007°01'0 0.0
2018-Aug-10 22:00N 43°33' E 007°01'0 0.0
2018-Aug-10 21:30N 43°33' E 007°01'0 0.0
2018-Aug-10 21:00N 43°33' E 007°01'0 0.0
2018-Aug-10 20:30N 43°33' E 007°01'0 0.0
2018-Aug-10 19:57N 43°33' E 007°01'0 0.0
2018-Aug-10 19:30N 43°33' E 007°01'0 0.0
2018-Aug-10 19:00N 43°33' E 007°01'0 0.0
2018-Aug-10 18:30N 43°33' E 007°01'0 0.0
2018-Aug-10 17:54N 43°33' E 007°01'0 0.0
2018-Aug-10 17:24N 43°33' E 007°01'0 0.0
2018-Aug-10 16:54N 43°33' E 007°01'0 0.0
2018-Aug-10 16:27N 43°33' E 007°01'0 0.0
2018-Aug-10 15:54N 43°33' E 007°01'0 0.0
2018-Aug-10 15:27N 43°33' E 007°01'0 0.0
2018-Aug-10 14:57N 43°33' E 007°01'0 0.1
2018-Aug-10 14:30N 43°33' E 007°01'0 0.0
2018-Aug-10 14:00N 43°33' E 007°01'0 0.0
2018-Aug-10 13:27N 43°33' E 007°01'0 0.0
2018-Aug-10 12:54N 43°33' E 007°01'0 0.1
2018-Aug-10 12:30N 43°33' E 007°01'0 0.7
2018-Aug-10 11:58N 43°33' E 007°01'0 0.0
2018-Aug-10 10:01N 43°33' E 007°01'0 0.0
2018-Aug-10 09:58N 43°33' E 007°01'0 0.0
2018-Aug-10 09:28N 43°33' E 007°01'0 0.0
2018-Aug-10 08:58N 43°33' E 007°01'0 0.0
2018-Aug-10 08:16N 43°33' E 007°01'0 0.0
2018-Aug-10 07:49N 43°33' E 007°01'0 0.0
2018-Aug-10 07:01N 43°33' E 007°01'0 0.0
2018-Aug-10 06:49N 43°33' E 007°01'0 0.0
2018-Aug-10 06:19N 43°33' E 007°01'0 0.0
2018-Aug-10 05:49N 43°33' E 007°01'0 0.0
2018-Aug-10 05:19N 43°33' E 007°01'0 0.0
2018-Aug-10 04:49N 43°33' E 007°01'0 0.0
2018-Aug-10 04:19N 43°33' E 007°01'0 0.0
2018-Aug-10 03:46N 43°33' E 007°01'0 0.0
2018-Aug-10 03:25N 43°33' E 007°01'0 0.0
2018-Aug-10 02:55N 43°33' E 007°01'0 0.0
2018-Aug-10 02:25N 43°33' E 007°01'0 0.0
2018-Aug-10 01:55N 43°33' E 007°01'0 0.0
2018-Aug-10 01:07N 43°33' E 007°01'0 0.0
2018-Aug-10 00:52N 43°33' E 007°01'0 0.0
2018-Aug-10 00:28N 43°33' E 007°01'0 0.0
2018-Aug-09 23:43N 43°33' E 007°01'0 0.0
2018-Aug-09 23:25N 43°33' E 007°01'  
Track history (hours):
 
Tides and Currents Weather Stations Pressure Air Temp Water Temp Dewpoint Dewpoint Depression Visibility Wind Speed Wind Dir Waves Ship Positions

Sarah

Last reported at 2018-Aug-19 22:59 UTC. Time now 2018-Aug-19 23:11 UTC.
Position N 43°32' E 007°02'.

Length 62 m; draft 3.5 m.

Type: Pleasure craft. MMSI: 319775000.

Date/timePositionNaut miles runAvg speedWind from/ knotsBaromVisibWave heightAir tempDewpointWater temp
2018-Aug-19 22:59N 43°32' E 007°02'0 0.0
2018-Aug-19 22:29N 43°32' E 007°02'0 0.0
2018-Aug-19 21:59N 43°32' E 007°02'0 0.0
2018-Aug-19 21:29N 43°32' E 007°02'0 0.0
2018-Aug-19 20:59N 43°32' E 007°02'0 0.0
2018-Aug-19 20:29N 43°32' E 007°02'0 0.0
2018-Aug-19 19:59N 43°32' E 007°02'0 0.0
2018-Aug-19 19:29N 43°32' E 007°02'0 0.0
2018-Aug-19 18:59N 43°32' E 007°02'0 0.0
2018-Aug-19 18:29N 43°32' E 007°02'0 0.0
2018-Aug-19 17:59N 43°32' E 007°02'0 1.0
2018-Aug-19 17:30N 43°32' E 007°01'0 0.0
2018-Aug-19 17:00N 43°32' E 007°01'0 0.0
2018-Aug-19 16:30N 43°32' E 007°01'0 0.0
2018-Aug-19 16:00N 43°32' E 007°01'0 0.0
2018-Aug-19 15:30N 43°32' E 007°01'0 0.0
2018-Aug-19 15:00N 43°32' E 007°01'0 0.9
2018-Aug-19 14:29N 43°32' E 007°02'0 0.0
2018-Aug-19 13:59N 43°32' E 007°02'0 0.0
2018-Aug-19 13:29N 43°32' E 007°02'0 0.0
2018-Aug-19 12:59N 43°32' E 007°02'0 0.0
2018-Aug-19 12:29N 43°32' E 007°02'0 0.0
2018-Aug-19 11:59N 43°32' E 007°02'0 0.0
2018-Aug-19 11:29N 43°32' E 007°02'0 0.0
2018-Aug-19 10:59N 43°32' E 007°02'0 0.0
2018-Aug-19 10:29N 43°32' E 007°02'0 0.0
2018-Aug-19 09:59N 43°32' E 007°02'0 0.0
2018-Aug-19 09:29N 43°32' E 007°02'0 0.0
2018-Aug-19 08:59N 43°32' E 007°02'0 0.0
2018-Aug-19 08:29N 43°32' E 007°02'0 0.0
2018-Aug-19 07:59N 43°32' E 007°02'0 0.0
2018-Aug-19 07:29N 43°32' E 007°02'0 0.0
2018-Aug-19 06:59N 43°32' E 007°02'0 0.0
2018-Aug-19 06:29N 43°32' E 007°02'0 0.0
2018-Aug-19 05:59N 43°32' E 007°02'0 0.0
2018-Aug-19 05:29N 43°32' E 007°02'0 0.0
2018-Aug-19 04:59N 43°32' E 007°02'0 0.0
2018-Aug-19 04:29N 43°32' E 007°02'0 0.0
2018-Aug-19 03:59N 43°32' E 007°02'0 0.0
2018-Aug-19 03:29N 43°32' E 007°02'0 0.0
2018-Aug-19 02:59N 43°32' E 007°02'0 0.0
2018-Aug-19 02:29N 43°32' E 007°02'0 0.0
2018-Aug-19 01:59N 43°32' E 007°02'0 0.0
2018-Aug-19 01:29N 43°32' E 007°02'0 0.0
2018-Aug-19 00:59N 43°32' E 007°02'0 0.0
2018-Aug-19 00:28N 43°32' E 007°02'0 0.0
2018-Aug-18 23:58N 43°32' E 007°02'0 0.0
2018-Aug-18 23:28N 43°32' E 007°02'0 0.0
2018-Aug-18 22:58N 43°32' E 007°02'0 0.0
2018-Aug-18 22:28N 43°32' E 007°02'0 0.0
2018-Aug-18 21:58N 43°32' E 007°02'0 0.0
2018-Aug-18 21:28N 43°32' E 007°02'0 0.0
2018-Aug-18 20:58N 43°32' E 007°02'0 0.0
2018-Aug-18 20:28N 43°32' E 007°02'0 0.0
2018-Aug-18 19:58N 43°32' E 007°02'0 0.0
2018-Aug-18 19:30N 43°32' E 007°02'0 0.0
2018-Aug-18 19:00N 43°32' E 007°02'0 0.0
2018-Aug-18 18:30N 43°32' E 007°02'2 3.1
2018-Aug-18 18:00N 43°31' E 007°01'2 4.2
2018-Aug-18 17:29N 43°31' E 007°04'0 0.0
2018-Aug-18 16:59N 43°31' E 007°04'0 0.0
2018-Aug-18 16:29N 43°31' E 007°04'0 0.0
2018-Aug-18 15:59N 43°31' E 007°04'0 0.0
2018-Aug-18 15:29N 43°31' E 007°04'0 0.0
2018-Aug-18 15:00N 43°31' E 007°04'3 6.3
2018-Aug-18 14:31N 43°30' E 007°08'714.4
2018-Aug-18 14:00N 43°27' E 007°17'3 6.4
2018-Aug-18 13:30N 43°26' E 007°21'510.1
2018-Aug-18 13:00N 43°28' E 007°27'713.1
2018-Aug-18 12:30N 43°35' E 007°27'714.2
2018-Aug-18 12:00N 43°42' E 007°27'3 4.3
2018-Aug-18 11:25N 43°44' E 007°25'0 0.0
2018-Aug-18 10:52N 43°44' E 007°25'0 0.0
2018-Aug-18 10:28N 43°44' E 007°25'0 0.0
2018-Aug-18 08:34N 43°44' E 007°25'0 0.0
2018-Aug-18 08:22N 43°44' E 007°25'0 0.0
2018-Aug-18 07:49N 43°44' E 007°25'0 0.0
2018-Aug-18 05:55N 43°44' E 007°25'0 0.0
2018-Aug-18 05:28N 43°44' E 007°25'0 0.0
2018-Aug-18 01:58N 43°44' E 007°25'0 0.0
2018-Aug-18 01:19N 43°44' E 007°25'0 0.0
2018-Aug-18 00:49N 43°44' E 007°25'0 0.0
2018-Aug-18 00:16N 43°44' E 007°25'0 0.0
2018-Aug-17 23:53N 43°44' E 007°25'0 0.0
2018-Aug-17 23:30N 43°44' E 007°25'0 0.0
2018-Aug-17 23:00N 43°44' E 007°25'0 0.0
2018-Aug-17 22:30N 43°44' E 007°25'0 0.0
2018-Aug-17 22:00N 43°44' E 007°25'0 0.0
2018-Aug-17 21:30N 43°44' E 007°25'0 0.0
2018-Aug-17 21:00N 43°44' E 007°25'0 0.0
2018-Aug-17 20:30N 43°44' E 007°25'0 0.0
2018-Aug-17 20:00N 43°44' E 007°25'0 0.0
2018-Aug-17 19:30N 43°44' E 007°25'0 0.2
2018-Aug-17 19:00N 43°44' E 007°26'4 7.9
2018-Aug-17 18:30N 43°41' E 007°22'714.0
2018-Aug-17 18:00N 43°37' E 007°15'510.6
2018-Aug-17 17:30N 43°34' E 007°09'0 0.0
2018-Aug-17 17:00N 43°34' E 007°09'0 0.0
2018-Aug-17 16:29N 43°34' E 007°09'0 0.0
2018-Aug-17 16:00N 43°34' E 007°09'0 0.0
2018-Aug-17 15:30N 43°34' E 007°09'0 0.0
2018-Aug-17 15:00N 43°34' E 007°09'0 0.0
2018-Aug-17 14:01N 43°34' E 007°09'4 7.5
2018-Aug-17 13:30N 43°31' E 007°06'4 7.1
2018-Aug-17 13:01N 43°32' E 007°01'0 0.5
2018-Aug-17 12:30N 43°32' E 007°02'0 0.0
2018-Aug-17 11:57N 43°32' E 007°02'0 0.0
2018-Aug-17 11:30N 43°32' E 007°02'0 0.0
2018-Aug-17 11:00N 43°32' E 007°02'0 0.0
2018-Aug-17 10:30N 43°32' E 007°02'0 0.0
2018-Aug-17 09:54N 43°32' E 007°02'0 0.0
2018-Aug-17 09:21N 43°32' E 007°02'0 0.0
2018-Aug-17 08:51N 43°32' E 007°02'0 0.0
2018-Aug-17 08:30N 43°32' E 007°02'0 0.0
2018-Aug-17 08:00N 43°32' E 007°02'0 0.0
2018-Aug-17 07:30N 43°32' E 007°02'0 0.0
2018-Aug-17 07:00N 43°32' E 007°02'0 0.0
2018-Aug-17 06:30N 43°32' E 007°02'0 0.0
2018-Aug-17 06:00N 43°32' E 007°02'0 0.0
2018-Aug-17 05:30N 43°32' E 007°02'0 0.0
2018-Aug-17 05:00N 43°32' E 007°02'0 0.0
2018-Aug-17 04:30N 43°32' E 007°02'0 0.0
2018-Aug-17 04:00N 43°32' E 007°02'0 0.0
2018-Aug-17 03:30N 43°32' E 007°02'0 0.0
2018-Aug-17 03:00N 43°32' E 007°02'0 0.0
2018-Aug-17 02:30N 43°32' E 007°02'0 0.0
2018-Aug-17 02:00N 43°32' E 007°02'0 0.0
2018-Aug-17 01:30N 43°32' E 007°02'0 0.0
2018-Aug-17 01:00N 43°32' E 007°02'0 0.0
2018-Aug-17 00:30N 43°32' E 007°02'0 0.0
2018-Aug-17 00:00N 43°32' E 007°02'0 0.0
2018-Aug-16 23:30N 43°32' E 007°02'0 0.0
2018-Aug-16 23:00N 43°32' E 007°02'0 0.0
2018-Aug-16 22:30N 43°32' E 007°02'0 0.0
2018-Aug-16 22:00N 43°32' E 007°02'0 0.0
2018-Aug-16 21:30N 43°32' E 007°02'0 0.0
2018-Aug-16 21:00N 43°32' E 007°02'0 0.0
2018-Aug-16 20:30N 43°32' E 007°02'0 0.0
2018-Aug-16 20:00N 43°32' E 007°02'0 0.0
2018-Aug-16 19:30N 43°32' E 007°02'0 0.0
2018-Aug-16 19:00N 43°32' E 007°02'1 1.4
2018-Aug-16 18:30N 43°32' E 007°01'3 6.4
2018-Aug-16 18:00N 43°31' E 006°57'0 0.0
2018-Aug-16 17:30N 43°31' E 006°57'0 0.0
2018-Aug-16 17:00N 43°31' E 006°57'0 0.0
2018-Aug-16 16:30N 43°31' E 006°57'0 0.2
2018-Aug-16 16:00N 43°31' E 006°57'3 5.8
2018-Aug-16 15:30N 43°32' E 007°01'1 1.7
2018-Aug-16 14:58N 43°33' E 007°02'0 0.0
2018-Aug-16 14:29N 43°33' E 007°02'0 0.5
2018-Aug-16 13:58N 43°32' E 007°02'0 0.0
2018-Aug-16 13:28N 43°32' E 007°02'0 0.0
2018-Aug-16 12:58N 43°32' E 007°02'0 0.0
2018-Aug-16 12:28N 43°32' E 007°02'0 0.0
2018-Aug-16 11:58N 43°32' E 007°02'0 0.0
2018-Aug-16 11:28N 43°32' E 007°02'0 0.0
2018-Aug-16 10:58N 43°32' E 007°02'0 0.0
2018-Aug-16 10:28N 43°32' E 007°02'0 0.0
2018-Aug-16 09:58N 43°32' E 007°02'0 0.0
2018-Aug-16 09:28N 43°32' E 007°02'0 0.0
2018-Aug-16 08:58N 43°32' E 007°02'0 0.0
2018-Aug-16 08:28N 43°32' E 007°02'0 0.0
2018-Aug-16 07:58N 43°32' E 007°02'0 0.0
2018-Aug-16 07:28N 43°32' E 007°02'0 0.0
2018-Aug-16 06:58N 43°32' E 007°02'0 0.0
2018-Aug-16 06:28N 43°32' E 007°02'0 0.0
2018-Aug-16 05:58N 43°32' E 007°02'0 0.0
2018-Aug-16 05:28N 43°32' E 007°02'0 0.0
2018-Aug-16 05:01N 43°32' E 007°02'0 0.0
2018-Aug-16 04:31N 43°32' E 007°02'0 0.0
2018-Aug-16 04:01N 43°32' E 007°02'0 0.0
2018-Aug-16 03:31N 43°32' E 007°02'0 0.0
2018-Aug-16 03:01N 43°32' E 007°02'0 0.0
2018-Aug-16 02:31N 43°32' E 007°02'0 0.0
2018-Aug-16 02:01N 43°32' E 007°02'0 0.0
2018-Aug-16 01:31N 43°32' E 007°02'0 0.0
2018-Aug-16 01:00N 43°32' E 007°02'0 0.0
2018-Aug-16 00:30N 43°32' E 007°02'0 0.0
2018-Aug-16 00:00N 43°32' E 007°02'0 0.0
2018-Aug-15 23:30N 43°32' E 007°02'0 0.0
2018-Aug-15 23:00N 43°32' E 007°02'0 0.0
2018-Aug-15 22:30N 43°32' E 007°02'0 0.0
2018-Aug-15 22:00N 43°32' E 007°02'0 0.0
2018-Aug-15 21:30N 43°32' E 007°02'0 0.0
2018-Aug-15 20:57N 43°32' E 007°02'0 0.0
2018-Aug-15 20:27N 43°32' E 007°02'0 0.0
2018-Aug-15 20:00N 43°32' E 007°02'0 0.0
2018-Aug-15 19:30N 43°32' E 007°02'0 0.0
2018-Aug-15 19:00N 43°32' E 007°02'0 0.0
2018-Aug-15 18:30N 43°32' E 007°02'0 0.0
2018-Aug-15 18:00N 43°32' E 007°02'0 0.0
2018-Aug-15 17:30N 43°32' E 007°02'0 0.0
2018-Aug-15 17:00N 43°32' E 007°02'0 0.0
2018-Aug-15 16:30N 43°32' E 007°02'0 0.0
2018-Aug-15 15:57N 43°32' E 007°02'0 0.0
2018-Aug-15 15:30N 43°32' E 007°02'0 0.0
2018-Aug-15 14:57N 43°32' E 007°02'0 0.0
2018-Aug-15 14:30N 43°32' E 007°02'0 0.0
2018-Aug-15 14:00N 43°32' E 007°02'0 0.0
2018-Aug-15 13:30N 43°32' E 007°02'0 0.0
2018-Aug-15 13:00N 43°32' E 007°02'0 0.0
2018-Aug-15 12:27N 43°32' E 007°02'0 0.0
2018-Aug-15 12:00N 43°32' E 007°02'0 0.0
2018-Aug-15 11:30N 43°32' E 007°02'0 0.0
2018-Aug-15 11:00N 43°32' E 007°02'0 0.0
2018-Aug-15 10:30N 43°32' E 007°02'0 0.0
2018-Aug-15 09:57N 43°32' E 007°02'0 0.0
2018-Aug-15 09:30N 43°32' E 007°02'0 0.0
2018-Aug-15 09:00N 43°32' E 007°02'0 0.0
2018-Aug-15 08:30N 43°32' E 007°02'0 0.0
2018-Aug-15 08:00N 43°32' E 007°02'0 0.0
2018-Aug-15 07:30N 43°32' E 007°02'0 0.0
2018-Aug-15 07:00N 43°32' E 007°02'0 0.0
2018-Aug-15 06:30N 43°32' E 007°02'0 0.0
2018-Aug-15 06:00N 43°32' E 007°02'0 0.0
2018-Aug-15 05:30N 43°32' E 007°02'0 0.0
2018-Aug-15 04:57N 43°32' E 007°02'0 0.0
2018-Aug-15 04:30N 43°32' E 007°02'0 0.0
2018-Aug-15 04:00N 43°32' E 007°02'0 0.0
2018-Aug-15 03:30N 43°32' E 007°02'0 0.0
2018-Aug-15 03:00N 43°32' E 007°02'0 0.0
2018-Aug-15 02:30N 43°32' E 007°02'0 0.0
2018-Aug-15 02:00N 43°32' E 007°02'0 0.0
2018-Aug-15 01:30N 43°32' E 007°02'0 0.0
2018-Aug-15 01:00N 43°32' E 007°02'0 0.0
2018-Aug-15 00:30N 43°32' E 007°02'0 0.0
2018-Aug-15 00:00N 43°32' E 007°02'0 0.0
2018-Aug-14 23:30N 43°32' E 007°02'0 0.0
2018-Aug-14 23:00N 43°32' E 007°02'0 0.0
2018-Aug-14 22:30N 43°32' E 007°02'0 0.0
2018-Aug-14 22:00N 43°32' E 007°02'0 0.0
2018-Aug-14 21:30N 43°32' E 007°02'0 0.0
2018-Aug-14 21:00N 43°32' E 007°02'0 0.0
2018-Aug-14 20:30N 43°32' E 007°02'0 0.0
2018-Aug-14 20:00N 43°32' E 007°02'0 0.0
2018-Aug-14 19:30N 43°32' E 007°02'0 0.0
2018-Aug-14 19:00N 43°32' E 007°02'0 0.0
2018-Aug-14 18:30N 43°32' E 007°02'0 0.0
2018-Aug-14 18:00N 43°32' E 007°02'0 0.0
2018-Aug-14 17:27N 43°32' E 007°02'0 0.0
2018-Aug-14 17:00N 43°32' E 007°02'0 0.0
2018-Aug-14 16:30N 43°32' E 007°02'0 0.8
2018-Aug-14 16:00N 43°33' E 007°01'0 0.2
2018-Aug-14 15:28N 43°33' E 007°01'0 0.0
2018-Aug-14 14:58N 43°33' E 007°01'0 0.0
2018-Aug-14 14:28N 43°33' E 007°01'0 0.0
2018-Aug-14 13:58N 43°33' E 007°01'0 0.0
2018-Aug-14 13:25N 43°33' E 007°01'0 0.0
2018-Aug-14 12:58N 43°33' E 007°01'0 0.1
2018-Aug-14 12:28N 43°33' E 007°01'0 0.0
2018-Aug-14 11:58N 43°33' E 007°01'0 0.0
2018-Aug-14 11:25N 43°33' E 007°01'0 0.0
2018-Aug-14 10:55N 43°33' E 007°01'0 0.0
2018-Aug-14 10:28N 43°33' E 007°01'0 0.0
2018-Aug-14 09:58N 43°33' E 007°01'0 0.0
2018-Aug-14 09:28N 43°33' E 007°01'0 0.1
2018-Aug-14 09:01N 43°33' E 007°01'1 1.0
2018-Aug-14 08:27N 43°32' E 007°02'0 0.0
2018-Aug-14 07:57N 43°32' E 007°02'0 0.0
2018-Aug-14 07:27N 43°32' E 007°02'0 0.0
2018-Aug-14 07:00N 43°32' E 007°02'0 0.0
2018-Aug-14 06:30N 43°32' E 007°02'0 0.0
2018-Aug-14 06:00N 43°32' E 007°02'0 0.0
2018-Aug-14 05:30N 43°32' E 007°02'0 0.0
2018-Aug-14 05:00N 43°32' E 007°02'0 0.0
2018-Aug-14 04:30N 43°32' E 007°02'0 0.0
2018-Aug-14 04:00N 43°32' E 007°02'0 0.0
2018-Aug-14 03:30N 43°32' E 007°02'0 0.0
2018-Aug-14 03:00N 43°32' E 007°02'0 0.0
2018-Aug-14 02:30N 43°32' E 007°02'0 0.0
2018-Aug-14 02:00N 43°32' E 007°02'0 0.0
2018-Aug-14 01:30N 43°32' E 007°02'0 0.0
2018-Aug-14 01:00N 43°32' E 007°02'0 0.0
2018-Aug-14 00:30N 43°32' E 007°02'0 0.0
2018-Aug-14 00:00N 43°32' E 007°02'0 0.0
2018-Aug-13 23:30N 43°32' E 007°02'0 0.0
2018-Aug-13 22:51N 43°32' E 007°02'0 0.0
2018-Aug-13 22:21N 43°32' E 007°02'0 0.0
2018-Aug-13 21:57N 43°32' E 007°02'0 0.0
2018-Aug-13 21:21N 43°32' E 007°02'0 0.0
2018-Aug-13 20:54N 43°32' E 007°02'0 0.0
2018-Aug-13 20:24N 43°32' E 007°02'0 0.0
2018-Aug-13 19:54N 43°32' E 007°02'0 0.0
2018-Aug-13 19:24N 43°32' E 007°02'0 0.0
2018-Aug-13 18:54N 43°32' E 007°02'0 0.0
2018-Aug-13 18:24N 43°32' E 007°02'0 0.0
2018-Aug-13 17:57N 43°32' E 007°02'0 0.0
2018-Aug-13 17:27N 43°32' E 007°02'0 0.0
2018-Aug-13 17:00N 43°32' E 007°02'0 0.0
2018-Aug-13 16:27N 43°32' E 007°02'0 0.0
2018-Aug-13 15:42N 43°32' E 007°02'0 0.0
2018-Aug-13 15:27N 43°32' E 007°02'0 0.0
2018-Aug-13 15:00N 43°32' E 007°02'0 0.0
2018-Aug-13 14:30N 43°32' E 007°02'0 0.0
2018-Aug-13 14:00N 43°32' E 007°02'0 0.0
2018-Aug-13 13:30N 43°32' E 007°02'0 0.0
2018-Aug-13 13:00N 43°32' E 007°02'0 0.0
2018-Aug-13 12:30N 43°32' E 007°02'0 0.0
2018-Aug-13 12:00N 43°32' E 007°02'0 0.0
2018-Aug-13 11:30N 43°32' E 007°02'0 0.0
2018-Aug-13 11:00N 43°32' E 007°02'0 0.0
2018-Aug-13 10:30N 43°32' E 007°02'0 0.0
2018-Aug-13 10:00N 43°32' E 007°02'0 0.0
2018-Aug-13 09:30N 43°32' E 007°02'0 0.0
2018-Aug-13 08:48N 43°32' E 007°02'0 0.0
2018-Aug-13 08:24N 43°32' E 007°02'0 0.0
2018-Aug-13 08:00N 43°32' E 007°02'0 0.0
2018-Aug-13 07:30N 43°32' E 007°02'0 0.0
2018-Aug-13 06:42N 43°32' E 007°02'0 0.0
2018-Aug-13 06:24N 43°32' E 007°02'0 0.0
2018-Aug-13 05:57N 43°32' E 007°02'0 0.0
2018-Aug-13 05:30N 43°32' E 007°02'0 0.0
2018-Aug-13 05:00N 43°32' E 007°02'0 0.0
2018-Aug-13 04:27N 43°32' E 007°02'0 0.0
2018-Aug-13 04:00N 43°32' E 007°02'0 0.0
2018-Aug-13 03:30N 43°32' E 007°02'0 0.0
2018-Aug-13 02:54N 43°32' E 007°02'0 0.0
2018-Aug-13 02:21N 43°32' E 007°02'0 0.0
2018-Aug-13 02:00N 43°32' E 007°02'0 0.0
2018-Aug-13 01:24N 43°32' E 007°02'0 0.0
2018-Aug-13 00:57N 43°32' E 007°02'0 0.0
2018-Aug-13 00:27N 43°32' E 007°02'0 0.0
2018-Aug-13 00:00N 43°32' E 007°02'0 0.0
2018-Aug-12 23:27N 43°32' E 007°02'0 0.0
2018-Aug-12 23:00N 43°32' E 007°02'0 0.0
2018-Aug-12 22:30N 43°32' E 007°02'0 0.0
2018-Aug-12 22:00N 43°32' E 007°02'0 0.0
2018-Aug-12 21:30N 43°32' E 007°02'0 0.0
2018-Aug-12 20:57N 43°32' E 007°02'0 0.0
2018-Aug-12 20:30N 43°32' E 007°02'0 0.0
2018-Aug-12 20:00N 43°32' E 007°02'0 0.0
2018-Aug-12 19:30N 43°32' E 007°02'0 0.0
2018-Aug-12 19:01N 43°32' E 007°02'0 0.0
2018-Aug-12 18:30N 43°32' E 007°02'0 0.0
2018-Aug-12 18:00N 43°32' E 007°02'2 3.6
2018-Aug-12 17:31N 43°32' E 006°60'2 4.3
2018-Aug-12 16:58N 43°31' E 006°57'0 0.0
2018-Aug-12 16:28N 43°31' E 006°57'0 0.0
2018-Aug-12 15:58N 43°31' E 006°57'0 0.0
2018-Aug-12 15:28N 43°31' E 006°57'0 0.1
2018-Aug-12 14:58N 43°31' E 006°57'2 4.5
2018-Aug-12 14:30N 43°32' E 006°59'2 2.8
2018-Aug-12 13:55N 43°32' E 007°01'0 0.0
2018-Aug-12 13:28N 43°32' E 007°01'0 0.0
2018-Aug-12 12:58N 43°32' E 007°01'0 0.0
2018-Aug-12 12:28N 43°32' E 007°01'0 0.0
2018-Aug-12 11:58N 43°32' E 007°01'0 0.0
2018-Aug-12 11:28N 43°32' E 007°01'0 0.0
2018-Aug-12 10:58N 43°32' E 007°01'0 0.0
2018-Aug-12 10:28N 43°32' E 007°01'0 0.0
2018-Aug-12 09:55N 43°32' E 007°01'0 0.0
2018-Aug-12 09:28N 43°32' E 007°01'0 0.0
2018-Aug-12 08:58N 43°32' E 007°01'0 0.0
2018-Aug-12 08:28N 43°32' E 007°01'0 0.0
2018-Aug-12 07:58N 43°32' E 007°01'0 0.0
2018-Aug-12 07:28N 43°32' E 007°01'0 0.0
2018-Aug-12 07:01N 43°32' E 007°01'0 0.0
2018-Aug-12 06:28N 43°32' E 007°01'0 0.0
2018-Aug-12 06:01N 43°32' E 007°01'0 0.0
2018-Aug-12 05:31N 43°32' E 007°01'0 0.0
2018-Aug-12 05:01N 43°32' E 007°01'0 0.0
2018-Aug-12 04:31N 43°32' E 007°01'0 0.0
2018-Aug-12 04:01N 43°32' E 007°01'1 1.2
2018-Aug-12 03:30N 43°32' E 007°01'510.5
2018-Aug-12 03:00N 43°27' E 006°57'18 3.3
2018-Aug-11 21:34N 43°17' E 006°38'0 0.0
2018-Aug-11 21:10N 43°17' E 006°38'0 0.0
2018-Aug-11 20:49N 43°17' E 006°38'0 0.0
2018-Aug-11 20:28N 43°17' E 006°38'0 0.0
2018-Aug-11 19:25N 43°17' E 006°38'0 0.0
2018-Aug-11 18:52N 43°17' E 006°38'2 5.6
2018-Aug-11 18:30N 43°17' E 006°40'4 7.0
2018-Aug-11 17:58N 43°13' E 006°41'0 1.0
2018-Aug-11 17:28N 43°13' E 006°40'0 0.0
2018-Aug-11 16:58N 43°13' E 006°40'0 0.0
2018-Aug-11 16:25N 43°13' E 006°40'0 0.0
2018-Aug-11 15:58N 43°13' E 006°40'0 0.0
2018-Aug-11 15:25N 43°13' E 006°40'0 0.0
2018-Aug-11 14:55N 43°13' E 006°40'19 2.2
2018-Aug-11 06:34N 43°27' E 006°57'115.2
2018-Aug-11 06:30N 43°28' E 006°58'5 8.5
2018-Aug-11 05:54N 43°33' E 007°01'0 0.0
2018-Aug-11 05:27N 43°33' E 007°01'0 0.0
2018-Aug-11 04:57N 43°33' E 007°01'0 0.0
2018-Aug-11 04:27N 43°33' E 007°01'0 0.0
2018-Aug-11 04:00N 43°33' E 007°01'0 0.0
2018-Aug-11 03:30N 43°33' E 007°01'0 0.0
2018-Aug-11 03:00N 43°33' E 007°01'0 0.0
2018-Aug-11 02:30N 43°33' E 007°01'0 0.0
2018-Aug-11 02:00N 43°33' E 007°01'0 0.0
2018-Aug-11 01:30N 43°33' E 007°01'0 0.0
2018-Aug-11 00:57N 43°33' E 007°01'0 0.0
2018-Aug-11 00:30N 43°33' E 007°01'0 0.0
2018-Aug-11 00:00N 43°33' E 007°01'0 0.0
2018-Aug-10 23:30N 43°33' E 007°01'0 0.0
2018-Aug-10 23:00N 43°33' E 007°01'0 0.0
2018-Aug-10 22:27N 43°33' E 007°01'0 0.0
2018-Aug-10 22:00N 43°33' E 007°01'0 0.0
2018-Aug-10 21:30N 43°33' E 007°01'0 0.0
2018-Aug-10 21:00N 43°33' E 007°01'0 0.0
2018-Aug-10 20:30N 43°33' E 007°01'0 0.0
2018-Aug-10 19:57N 43°33' E 007°01'0 0.0
2018-Aug-10 19:30N 43°33' E 007°01'0 0.0
2018-Aug-10 19:00N 43°33' E 007°01'0 0.0
2018-Aug-10 18:30N 43°33' E 007°01'0 0.0
2018-Aug-10 17:54N 43°33' E 007°01'0 0.0
2018-Aug-10 17:24N 43°33' E 007°01'0 0.0
2018-Aug-10 16:54N 43°33' E 007°01'0 0.0
2018-Aug-10 16:27N 43°33' E 007°01'0 0.0
2018-Aug-10 15:54N 43°33' E 007°01'0 0.0
2018-Aug-10 15:27N 43°33' E 007°01'0 0.0
2018-Aug-10 14:57N 43°33' E 007°01'0 0.1
2018-Aug-10 14:30N 43°33' E 007°01'0 0.0
2018-Aug-10 14:00N 43°33' E 007°01'0 0.0
2018-Aug-10 13:27N 43°33' E 007°01'0 0.0
2018-Aug-10 12:54N 43°33' E 007°01'0 0.1
2018-Aug-10 12:30N 43°33' E 007°01'0 0.7
2018-Aug-10 11:58N 43°33' E 007°01'0 0.0
2018-Aug-10 10:01N 43°33' E 007°01'0 0.0
2018-Aug-10 09:58N 43°33' E 007°01'0 0.0
2018-Aug-10 09:28N 43°33' E 007°01'0 0.0
2018-Aug-10 08:58N 43°33' E 007°01'0 0.0
2018-Aug-10 08:16N 43°33' E 007°01'0 0.0
2018-Aug-10 07:49N 43°33' E 007°01'0 0.0
2018-Aug-10 07:01N 43°33' E 007°01'0 0.0
2018-Aug-10 06:49N 43°33' E 007°01'0 0.0
2018-Aug-10 06:19N 43°33' E 007°01'0 0.0
2018-Aug-10 05:49N 43°33' E 007°01'0 0.0
2018-Aug-10 05:19N 43°33' E 007°01'0 0.0
2018-Aug-10 04:49N 43°33' E 007°01'0 0.0
2018-Aug-10 04:19N 43°33' E 007°01'0 0.0
2018-Aug-10 03:46N 43°33' E 007°01'0 0.0
2018-Aug-10 03:25N 43°33' E 007°01'0 0.0
2018-Aug-10 02:55N 43°33' E 007°01'0 0.0
2018-Aug-10 02:25N 43°33' E 007°01'0 0.0
2018-Aug-10 01:55N 43°33' E 007°01'0 0.0
2018-Aug-10 01:07N 43°33' E 007°01'0 0.0
2018-Aug-10 00:52N 43°33' E 007°01'0 0.0
2018-Aug-10 00:28N 43°33' E 007°01'0 0.0
2018-Aug-09 23:43N 43°33' E 007°01'0 0.0
2018-Aug-09 23:25N 43°33' E 007°01'  

Dump ship's entire track history